sensor_id;sensor_type;location;lat;lon;timestamp;P1;durP1;ratioP1;P2;durP2;ratioP2
13849;SDS011;6995;52.618;13.488;2023-12-20T00:01:00;78.17;;;74.47;;
13849;SDS011;6995;52.618;13.488;2023-12-20T00:03:26;99.57;;;95.10;;
13849;SDS011;6995;52.618;13.488;2023-12-20T00:05:52;101.13;;;96.77;;
13849;SDS011;6995;52.618;13.488;2023-12-20T00:08:17;90.83;;;86.53;;
13849;SDS011;6995;52.618;13.488;2023-12-20T00:10:43;93.10;;;88.87;;
13849;SDS011;6995;52.618;13.488;2023-12-20T00:13:09;107.53;;;102.63;;
13849;SDS011;6995;52.618;13.488;2023-12-20T00:15:35;79.70;;;75.90;;
13849;SDS011;6995;52.618;13.488;2023-12-20T00:18:01;89.33;;;85.33;;
13849;SDS011;6995;52.618;13.488;2023-12-20T00:20:28;65.87;;;62.70;;
13849;SDS011;6995;52.618;13.488;2023-12-20T00:22:56;41.40;;;39.10;;
13849;SDS011;6995;52.618;13.488;2023-12-20T00:25:25;78.17;;;74.43;;
13849;SDS011;6995;52.618;13.488;2023-12-20T00:27:51;51.37;;;48.80;;
13849;SDS011;6995;52.618;13.488;2023-12-20T00:30:17;77.00;;;73.40;;
13849;SDS011;6995;52.618;13.488;2023-12-20T00:32:43;48.97;;;46.30;;
13849;SDS011;6995;52.618;13.488;2023-12-20T00:35:14;50.77;;;48.17;;
13849;SDS011;6995;52.618;13.488;2023-12-20T00:37:40;85.07;;;81.13;;
13849;SDS011;6995;52.618;13.488;2023-12-20T00:40:06;92.60;;;88.47;;
13849;SDS011;6995;52.618;13.488;2023-12-20T00:42:32;87.47;;;83.37;;
13849;SDS011;6995;52.618;13.488;2023-12-20T00:44:58;195.07;;;186.27;;
13849;SDS011;6995;52.618;13.488;2023-12-20T00:47:24;78.00;;;74.03;;
13849;SDS011;6995;52.618;13.488;2023-12-20T00:49:50;86.73;;;82.77;;
13849;SDS011;6995;52.618;13.488;2023-12-20T00:52:16;80.03;;;76.23;;
13849;SDS011;6995;52.618;13.488;2023-12-20T00:54:42;86.00;;;82.10;;
13849;SDS011;6995;52.618;13.488;2023-12-20T00:57:08;104.10;;;99.47;;
13849;SDS011;6995;52.618;13.488;2023-12-20T00:59:34;121.37;;;116.03;;
13849;SDS011;6995;52.618;13.488;2023-12-20T01:02:00;78.80;;;75.40;;
13849;SDS011;6995;52.618;13.488;2023-12-20T01:04:25;59.93;;;57.07;;
13849;SDS011;6995;52.618;13.488;2023-12-20T01:06:51;45.73;;;43.43;;
13849;SDS011;6995;52.618;13.488;2023-12-20T01:09:17;42.27;;;40.03;;
13849;SDS011;6995;52.618;13.488;2023-12-20T01:11:43;67.57;;;64.47;;
13849;SDS011;6995;52.618;13.488;2023-12-20T01:14:09;76.43;;;73.07;;
13849;SDS011;6995;52.618;13.488;2023-12-20T01:16:35;56.30;;;53.47;;
13849;SDS011;6995;52.618;13.488;2023-12-20T01:19:00;55.17;;;52.43;;
13849;SDS011;6995;52.618;13.488;2023-12-20T01:21:26;67.57;;;64.33;;
13849;SDS011;6995;52.618;13.488;2023-12-20T01:23:51;54.90;;;52.20;;
13849;SDS011;6995;52.618;13.488;2023-12-20T01:26:17;55.00;;;52.30;;
13849;SDS011;6995;52.618;13.488;2023-12-20T01:28:43;52.07;;;49.53;;
13849;SDS011;6995;52.618;13.488;2023-12-20T01:31:08;50.83;;;48.30;;
13849;SDS011;6995;52.618;13.488;2023-12-20T01:33:34;52.43;;;49.80;;
13849;SDS011;6995;52.618;13.488;2023-12-20T01:35:59;39.67;;;37.70;;
13849;SDS011;6995;52.618;13.488;2023-12-20T01:38:25;65.13;;;62.13;;
13849;SDS011;6995;52.618;13.488;2023-12-20T01:40:51;76.70;;;73.23;;
13849;SDS011;6995;52.618;13.488;2023-12-20T01:43:16;66.37;;;63.40;;
13849;SDS011;6995;52.618;13.488;2023-12-20T01:45:42;57.03;;;54.30;;
13849;SDS011;6995;52.618;13.488;2023-12-20T01:48:08;34.60;;;32.73;;
13849;SDS011;6995;52.618;13.488;2023-12-20T01:50:35;54.93;;;52.10;;
13849;SDS011;6995;52.618;13.488;2023-12-20T01:53:02;56.17;;;53.60;;
13849;SDS011;6995;52.618;13.488;2023-12-20T01:55:29;72.63;;;69.43;;
13849;SDS011;6995;52.618;13.488;2023-12-20T01:57:58;46.93;;;44.43;;
13849;SDS011;6995;52.618;13.488;2023-12-20T02:00:25;72.17;;;68.70;;
13849;SDS011;6995;52.618;13.488;2023-12-20T02:02:53;37.40;;;35.50;;
13849;SDS011;6995;52.618;13.488;2023-12-20T02:05:22;48.90;;;46.57;;
13849;SDS011;6995;52.618;13.488;2023-12-20T02:07:50;31.37;;;29.80;;
13849;SDS011;6995;52.618;13.488;2023-12-20T02:10:15;33.27;;;31.43;;
13849;SDS011;6995;52.618;13.488;2023-12-20T02:12:41;34.73;;;32.90;;
13849;SDS011;6995;52.618;13.488;2023-12-20T02:15:07;29.83;;;28.50;;
13849;SDS011;6995;52.618;13.488;2023-12-20T02:17:32;31.47;;;29.80;;
13849;SDS011;6995;52.618;13.488;2023-12-20T02:19:59;28.30;;;26.53;;
13849;SDS011;6995;52.618;13.488;2023-12-20T02:22:25;31.20;;;29.50;;
13849;SDS011;6995;52.618;13.488;2023-12-20T02:24:52;27.60;;;26.03;;
13849;SDS011;6995;52.618;13.488;2023-12-20T02:27:18;30.87;;;29.10;;
13849;SDS011;6995;52.618;13.488;2023-12-20T02:29:46;25.13;;;23.83;;
13849;SDS011;6995;52.618;13.488;2023-12-20T02:32:12;29.67;;;28.13;;
13849;SDS011;6995;52.618;13.488;2023-12-20T02:34:38;29.27;;;27.87;;
13849;SDS011;6995;52.618;13.488;2023-12-20T02:37:03;28.33;;;26.93;;
13849;SDS011;6995;52.618;13.488;2023-12-20T02:39:29;28.87;;;27.13;;
13849;SDS011;6995;52.618;13.488;2023-12-20T02:41:55;28.77;;;27.33;;
13849;SDS011;6995;52.618;13.488;2023-12-20T02:44:21;29.60;;;27.80;;
13849;SDS011;6995;52.618;13.488;2023-12-20T02:46:47;26.30;;;24.90;;
13849;SDS011;6995;52.618;13.488;2023-12-20T02:49:12;27.90;;;26.50;;
13849;SDS011;6995;52.618;13.488;2023-12-20T02:51:38;26.57;;;25.17;;
13849;SDS011;6995;52.618;13.488;2023-12-20T02:54:04;27.47;;;25.87;;
13849;SDS011;6995;52.618;13.488;2023-12-20T02:56:30;25.73;;;24.43;;
13849;SDS011;6995;52.618;13.488;2023-12-20T02:58:57;28.23;;;26.73;;
13849;SDS011;6995;52.618;13.488;2023-12-20T03:01:22;29.80;;;28.23;;
13849;SDS011;6995;52.618;13.488;2023-12-20T03:03:48;27.27;;;25.77;;
13849;SDS011;6995;52.618;13.488;2023-12-20T03:06:17;26.47;;;24.90;;
13849;SDS011;6995;52.618;13.488;2023-12-20T03:08:44;27.30;;;25.90;;
13849;SDS011;6995;52.618;13.488;2023-12-20T03:11:10;25.57;;;23.97;;
13849;SDS011;6995;52.618;13.488;2023-12-20T03:13:36;27.60;;;26.07;;
13849;SDS011;6995;52.618;13.488;2023-12-20T03:16:07;27.70;;;26.00;;
13849;SDS011;6995;52.618;13.488;2023-12-20T03:18:34;25.57;;;23.90;;
13849;SDS011;6995;52.618;13.488;2023-12-20T03:20:59;24.43;;;23.03;;
13849;SDS011;6995;52.618;13.488;2023-12-20T03:23:25;24.80;;;23.27;;
13849;SDS011;6995;52.618;13.488;2023-12-20T03:25:52;23.20;;;22.00;;
13849;SDS011;6995;52.618;13.488;2023-12-20T03:28:18;24.80;;;23.50;;
13849;SDS011;6995;52.618;13.488;2023-12-20T03:30:44;25.00;;;23.70;;
13849;SDS011;6995;52.618;13.488;2023-12-20T03:33:10;24.73;;;23.27;;
13849;SDS011;6995;52.618;13.488;2023-12-20T03:35:35;23.77;;;22.27;;
13849;SDS011;6995;52.618;13.488;2023-12-20T03:38:01;25.30;;;23.43;;
13849;SDS011;6995;52.618;13.488;2023-12-20T03:40:27;27.30;;;25.27;;
13849;SDS011;6995;52.618;13.488;2023-12-20T03:42:52;24.83;;;23.33;;
13849;SDS011;6995;52.618;13.488;2023-12-20T03:45:18;28.37;;;26.47;;
13849;SDS011;6995;52.618;13.488;2023-12-20T03:47:43;26.83;;;24.60;;
13849;SDS011;6995;52.618;13.488;2023-12-20T03:50:09;25.80;;;24.30;;
13849;SDS011;6995;52.618;13.488;2023-12-20T03:52:35;27.93;;;26.23;;
13849;SDS011;6995;52.618;13.488;2023-12-20T03:55:00;27.73;;;25.73;;
13849;SDS011;6995;52.618;13.488;2023-12-20T03:57:26;27.20;;;25.40;;
13849;SDS011;6995;52.618;13.488;2023-12-20T03:59:51;26.20;;;24.53;;
13849;SDS011;6995;52.618;13.488;2023-12-20T04:02:17;28.37;;;25.93;;
13849;SDS011;6995;52.618;13.488;2023-12-20T04:04:43;26.17;;;24.30;;
13849;SDS011;6995;52.618;13.488;2023-12-20T04:07:08;26.30;;;24.47;;
13849;SDS011;6995;52.618;13.488;2023-12-20T04:09:34;27.37;;;25.43;;
13849;SDS011;6995;52.618;13.488;2023-12-20T04:15:06;27.53;;;25.87;;
13849;SDS011;6995;52.618;13.488;2023-12-20T04:17:34;23.93;;;22.40;;
13849;SDS011;6995;52.618;13.488;2023-12-20T04:20:01;25.67;;;23.73;;
13849;SDS011;6995;52.618;13.488;2023-12-20T04:22:27;28.43;;;26.77;;
13849;SDS011;6995;52.618;13.488;2023-12-20T04:24:52;26.67;;;24.83;;
13849;SDS011;6995;52.618;13.488;2023-12-20T04:27:18;29.53;;;27.47;;
13849;SDS011;6995;52.618;13.488;2023-12-20T04:29:52;27.53;;;25.70;;
13849;SDS011;6995;52.618;13.488;2023-12-20T04:32:18;27.77;;;26.10;;
13849;SDS011;6995;52.618;13.488;2023-12-20T04:34:44;28.13;;;26.33;;
13849;SDS011;6995;52.618;13.488;2023-12-20T04:37:09;23.80;;;22.50;;
13849;SDS011;6995;52.618;13.488;2023-12-20T04:39:35;25.77;;;23.63;;
13849;SDS011;6995;52.618;13.488;2023-12-20T04:42:00;25.20;;;23.93;;
13849;SDS011;6995;52.618;13.488;2023-12-20T04:44:26;30.20;;;28.20;;
13849;SDS011;6995;52.618;13.488;2023-12-20T04:46:52;26.33;;;24.27;;
13849;SDS011;6995;52.618;13.488;2023-12-20T04:49:17;25.63;;;23.17;;
13849;SDS011;6995;52.618;13.488;2023-12-20T04:51:43;24.73;;;23.27;;
13849;SDS011;6995;52.618;13.488;2023-12-20T04:54:09;26.30;;;23.90;;
13849;SDS011;6995;52.618;13.488;2023-12-20T04:56:35;25.37;;;23.73;;
13849;SDS011;6995;52.618;13.488;2023-12-20T04:59:01;25.30;;;23.97;;
13849;SDS011;6995;52.618;13.488;2023-12-20T05:01:27;25.27;;;23.60;;
13849;SDS011;6995;52.618;13.488;2023-12-20T05:03:52;24.97;;;23.67;;
13849;SDS011;6995;52.618;13.488;2023-12-20T05:06:18;27.60;;;25.13;;
13849;SDS011;6995;52.618;13.488;2023-12-20T05:08:44;29.67;;;27.27;;
13849;SDS011;6995;52.618;13.488;2023-12-20T05:11:09;29.67;;;28.03;;
13849;SDS011;6995;52.618;13.488;2023-12-20T05:13:35;26.77;;;25.13;;
13849;SDS011;6995;52.618;13.488;2023-12-20T05:16:01;26.43;;;24.80;;
13849;SDS011;6995;52.618;13.488;2023-12-20T05:18:26;28.13;;;26.07;;
13849;SDS011;6995;52.618;13.488;2023-12-20T05:20:59;32.83;;;30.93;;
13849;SDS011;6995;52.618;13.488;2023-12-20T05:23:25;27.77;;;25.57;;
13849;SDS011;6995;52.618;13.488;2023-12-20T05:25:51;27.47;;;25.50;;
13849;SDS011;6995;52.618;13.488;2023-12-20T05:28:16;27.80;;;25.83;;
13849;SDS011;6995;52.618;13.488;2023-12-20T05:30:49;29.73;;;27.97;;
13849;SDS011;6995;52.618;13.488;2023-12-20T05:33:15;28.53;;;26.30;;
13849;SDS011;6995;52.618;13.488;2023-12-20T05:35:40;25.17;;;23.20;;
13849;SDS011;6995;52.618;13.488;2023-12-20T05:38:06;27.87;;;26.30;;
13849;SDS011;6995;52.618;13.488;2023-12-20T05:40:32;30.60;;;29.00;;
13849;SDS011;6995;52.618;13.488;2023-12-20T05:42:57;28.73;;;26.60;;
13849;SDS011;6995;52.618;13.488;2023-12-20T05:45:23;31.40;;;29.60;;
13849;SDS011;6995;52.618;13.488;2023-12-20T05:47:48;33.97;;;32.10;;
13849;SDS011;6995;52.618;13.488;2023-12-20T05:50:14;30.63;;;28.73;;
13849;SDS011;6995;52.618;13.488;2023-12-20T05:52:40;32.57;;;30.07;;
13849;SDS011;6995;52.618;13.488;2023-12-20T05:55:06;30.37;;;28.37;;
13849;SDS011;6995;52.618;13.488;2023-12-20T05:57:32;32.47;;;30.57;;
13849;SDS011;6995;52.618;13.488;2023-12-20T05:59:57;31.20;;;29.13;;
13849;SDS011;6995;52.618;13.488;2023-12-20T06:02:23;35.17;;;32.63;;
13849;SDS011;6995;52.618;13.488;2023-12-20T06:04:51;28.60;;;26.17;;
13849;SDS011;6995;52.618;13.488;2023-12-20T06:07:17;26.90;;;25.07;;
13849;SDS011;6995;52.618;13.488;2023-12-20T06:09:42;25.23;;;23.70;;
13849;SDS011;6995;52.618;13.488;2023-12-20T06:12:08;27.27;;;25.90;;
13849;SDS011;6995;52.618;13.488;2023-12-20T06:14:34;30.20;;;28.20;;
13849;SDS011;6995;52.618;13.488;2023-12-20T06:17:01;26.67;;;25.10;;
13849;SDS011;6995;52.618;13.488;2023-12-20T06:19:27;27.83;;;26.03;;
13849;SDS011;6995;52.618;13.488;2023-12-20T06:21:52;34.10;;;32.03;;
13849;SDS011;6995;52.618;13.488;2023-12-20T06:24:18;32.93;;;31.07;;
13849;SDS011;6995;52.618;13.488;2023-12-20T06:26:44;29.60;;;27.43;;
13849;SDS011;6995;52.618;13.488;2023-12-20T06:29:09;42.93;;;40.33;;
13849;SDS011;6995;52.618;13.488;2023-12-20T06:31:35;37.50;;;34.90;;
13849;SDS011;6995;52.618;13.488;2023-12-20T06:34:00;33.13;;;31.03;;
13849;SDS011;6995;52.618;13.488;2023-12-20T06:36:26;32.93;;;31.20;;
13849;SDS011;6995;52.618;13.488;2023-12-20T06:38:52;31.23;;;29.07;;
13849;SDS011;6995;52.618;13.488;2023-12-20T06:41:18;54.50;;;51.70;;
13849;SDS011;6995;52.618;13.488;2023-12-20T06:43:44;29.37;;;27.10;;
13849;SDS011;6995;52.618;13.488;2023-12-20T06:46:09;34.03;;;31.83;;
13849;SDS011;6995;52.618;13.488;2023-12-20T06:48:35;29.97;;;28.23;;
13849;SDS011;6995;52.618;13.488;2023-12-20T06:51:04;28.60;;;26.90;;
13849;SDS011;6995;52.618;13.488;2023-12-20T06:53:30;25.83;;;24.00;;
13849;SDS011;6995;52.618;13.488;2023-12-20T06:55:56;37.00;;;34.63;;
13849;SDS011;6995;52.618;13.488;2023-12-20T06:58:22;29.00;;;27.50;;
13849;SDS011;6995;52.618;13.488;2023-12-20T07:00:48;46.33;;;43.13;;
13849;SDS011;6995;52.618;13.488;2023-12-20T07:03:15;43.67;;;41.50;;
13849;SDS011;6995;52.618;13.488;2023-12-20T07:05:40;45.23;;;42.17;;
13849;SDS011;6995;52.618;13.488;2023-12-20T07:08:06;40.17;;;37.23;;
13849;SDS011;6995;52.618;13.488;2023-12-20T07:10:32;38.57;;;36.47;;
13849;SDS011;6995;52.618;13.488;2023-12-20T07:12:57;31.60;;;29.47;;
13849;SDS011;6995;52.618;13.488;2023-12-20T07:15:23;44.67;;;42.37;;
13849;SDS011;6995;52.618;13.488;2023-12-20T07:17:49;27.70;;;25.90;;
13849;SDS011;6995;52.618;13.488;2023-12-20T07:20:15;25.87;;;24.23;;
13849;SDS011;6995;52.618;13.488;2023-12-20T07:22:40;33.00;;;30.90;;
13849;SDS011;6995;52.618;13.488;2023-12-20T07:25:06;31.43;;;29.73;;
13849;SDS011;6995;52.618;13.488;2023-12-20T07:27:32;32.33;;;30.53;;
13849;SDS011;6995;52.618;13.488;2023-12-20T07:29:58;29.27;;;27.77;;
13849;SDS011;6995;52.618;13.488;2023-12-20T07:32:24;25.90;;;24.20;;
13849;SDS011;6995;52.618;13.488;2023-12-20T07:34:49;29.27;;;27.67;;
13849;SDS011;6995;52.618;13.488;2023-12-20T07:37:15;28.87;;;27.27;;
13849;SDS011;6995;52.618;13.488;2023-12-20T07:39:41;31.80;;;29.40;;
13849;SDS011;6995;52.618;13.488;2023-12-20T07:42:09;41.87;;;39.83;;
13849;SDS011;6995;52.618;13.488;2023-12-20T07:44:35;28.40;;;26.57;;
13849;SDS011;6995;52.618;13.488;2023-12-20T07:47:01;34.37;;;32.47;;
13849;SDS011;6995;52.618;13.488;2023-12-20T07:49:27;28.03;;;26.53;;
13849;SDS011;6995;52.618;13.488;2023-12-20T07:51:52;26.97;;;25.10;;
13849;SDS011;6995;52.618;13.488;2023-12-20T07:54:18;31.07;;;29.40;;
13849;SDS011;6995;52.618;13.488;2023-12-20T07:56:44;29.83;;;28.00;;
13849;SDS011;6995;52.618;13.488;2023-12-20T07:59:11;28.57;;;25.77;;
13849;SDS011;6995;52.618;13.488;2023-12-20T08:01:37;27.30;;;24.73;;
13849;SDS011;6995;52.618;13.488;2023-12-20T08:04:02;29.60;;;27.53;;
13849;SDS011;6995;52.618;13.488;2023-12-20T08:06:28;36.20;;;34.07;;
13849;SDS011;6995;52.618;13.488;2023-12-20T08:08:53;32.67;;;30.90;;
13849;SDS011;6995;52.618;13.488;2023-12-20T08:11:19;38.57;;;36.27;;
13849;SDS011;6995;52.618;13.488;2023-12-20T08:13:45;37.07;;;35.27;;
13849;SDS011;6995;52.618;13.488;2023-12-20T08:16:10;30.83;;;29.10;;
13849;SDS011;6995;52.618;13.488;2023-12-20T08:18:38;31.07;;;29.13;;
13849;SDS011;6995;52.618;13.488;2023-12-20T08:21:04;46.97;;;44.43;;
13849;SDS011;6995;52.618;13.488;2023-12-20T08:23:32;41.13;;;39.13;;
13849;SDS011;6995;52.618;13.488;2023-12-20T08:26:07;33.67;;;32.17;;
13849;SDS011;6995;52.618;13.488;2023-12-20T08:28:33;32.63;;;31.03;;
13849;SDS011;6995;52.618;13.488;2023-12-20T08:33:47;33.57;;;31.87;;
13849;SDS011;6995;52.618;13.488;2023-12-20T08:36:13;31.53;;;29.47;;
13849;SDS011;6995;52.618;13.488;2023-12-20T08:38:39;32.20;;;30.57;;
13849;SDS011;6995;52.618;13.488;2023-12-20T08:41:06;36.63;;;35.03;;
13849;SDS011;6995;52.618;13.488;2023-12-20T08:43:32;28.00;;;26.00;;
13849;SDS011;6995;52.618;13.488;2023-12-20T08:45:59;27.40;;;25.90;;
13849;SDS011;6995;52.618;13.488;2023-12-20T08:48:25;27.73;;;25.87;;
13849;SDS011;6995;52.618;13.488;2023-12-20T08:50:50;43.77;;;41.70;;
13849;SDS011;6995;52.618;13.488;2023-12-20T08:53:17;34.50;;;32.43;;
13849;SDS011;6995;52.618;13.488;2023-12-20T08:55:43;39.77;;;37.27;;
13849;SDS011;6995;52.618;13.488;2023-12-20T08:58:09;31.40;;;29.47;;
13849;SDS011;6995;52.618;13.488;2023-12-20T09:00:35;29.40;;;28.00;;
13849;SDS011;6995;52.618;13.488;2023-12-20T09:03:01;27.17;;;25.37;;
13849;SDS011;6995;52.618;13.488;2023-12-20T09:05:27;27.70;;;25.97;;
13849;SDS011;6995;52.618;13.488;2023-12-20T09:07:53;35.50;;;33.53;;
13849;SDS011;6995;52.618;13.488;2023-12-20T09:10:19;25.30;;;23.03;;
13849;SDS011;6995;52.618;13.488;2023-12-20T09:12:49;35.13;;;33.47;;
13849;SDS011;6995;52.618;13.488;2023-12-20T09:15:25;27.57;;;25.77;;
13849;SDS011;6995;52.618;13.488;2023-12-20T09:17:51;26.60;;;25.13;;
13849;SDS011;6995;52.618;13.488;2023-12-20T09:20:17;24.97;;;23.50;;
13849;SDS011;6995;52.618;13.488;2023-12-20T09:22:43;29.10;;;27.43;;
13849;SDS011;6995;52.618;13.488;2023-12-20T09:25:12;26.07;;;24.30;;
13849;SDS011;6995;52.618;13.488;2023-12-20T09:27:38;29.83;;;28.40;;
13849;SDS011;6995;52.618;13.488;2023-12-20T09:30:04;29.23;;;27.27;;
13849;SDS011;6995;52.618;13.488;2023-12-20T09:32:31;28.47;;;26.70;;
13849;SDS011;6995;52.618;13.488;2023-12-20T09:34:57;31.23;;;29.03;;
13849;SDS011;6995;52.618;13.488;2023-12-20T09:37:22;27.93;;;26.20;;
13849;SDS011;6995;52.618;13.488;2023-12-20T09:39:51;26.30;;;24.43;;
13849;SDS011;6995;52.618;13.488;2023-12-20T09:42:17;28.30;;;26.40;;
13849;SDS011;6995;52.618;13.488;2023-12-20T09:45:10;30.77;;;28.77;;
13849;SDS011;6995;52.618;13.488;2023-12-20T09:47:39;24.80;;;22.90;;
13849;SDS011;6995;52.618;13.488;2023-12-20T09:50:06;29.50;;;27.83;;
13849;SDS011;6995;52.618;13.488;2023-12-20T09:52:32;28.60;;;26.53;;
13849;SDS011;6995;52.618;13.488;2023-12-20T09:55:01;28.43;;;26.67;;
13849;SDS011;6995;52.618;13.488;2023-12-20T09:57:30;28.97;;;27.20;;
13849;SDS011;6995;52.618;13.488;2023-12-20T09:59:57;26.97;;;24.70;;
13849;SDS011;6995;52.618;13.488;2023-12-20T10:02:23;40.20;;;38.20;;
13849;SDS011;6995;52.618;13.488;2023-12-20T10:04:52;26.83;;;25.53;;
13849;SDS011;6995;52.618;13.488;2023-12-20T10:07:17;36.47;;;34.37;;
13849;SDS011;6995;52.618;13.488;2023-12-20T10:09:44;28.70;;;27.03;;
13849;SDS011;6995;52.618;13.488;2023-12-20T10:12:10;30.00;;;28.13;;
13849;SDS011;6995;52.618;13.488;2023-12-20T10:14:35;34.27;;;32.33;;
13849;SDS011;6995;52.618;13.488;2023-12-20T10:17:04;25.80;;;24.60;;
13849;SDS011;6995;52.618;13.488;2023-12-20T10:19:31;26.33;;;24.70;;
13849;SDS011;6995;52.618;13.488;2023-12-20T10:22:00;26.53;;;25.00;;
13849;SDS011;6995;52.618;13.488;2023-12-20T10:24:29;26.13;;;24.63;;
13849;SDS011;6995;52.618;13.488;2023-12-20T10:27:05;27.10;;;25.20;;
13849;SDS011;6995;52.618;13.488;2023-12-20T10:29:32;28.93;;;27.03;;
13849;SDS011;6995;52.618;13.488;2023-12-20T10:34:49;28.20;;;26.50;;
13849;SDS011;6995;52.618;13.488;2023-12-20T10:37:16;27.97;;;25.97;;
13849;SDS011;6995;52.618;13.488;2023-12-20T10:39:42;27.77;;;25.90;;
13849;SDS011;6995;52.618;13.488;2023-12-20T10:42:11;27.23;;;25.03;;
13849;SDS011;6995;52.618;13.488;2023-12-20T10:44:38;27.80;;;26.27;;
13849;SDS011;6995;52.618;13.488;2023-12-20T10:47:04;27.77;;;25.87;;
13849;SDS011;6995;52.618;13.488;2023-12-20T10:49:31;27.27;;;25.47;;
13849;SDS011;6995;52.618;13.488;2023-12-20T10:52:01;29.27;;;27.67;;
13849;SDS011;6995;52.618;13.488;2023-12-20T10:54:29;32.43;;;30.50;;
13849;SDS011;6995;52.618;13.488;2023-12-20T10:56:54;25.17;;;23.57;;
13849;SDS011;6995;52.618;13.488;2023-12-20T10:59:23;26.03;;;24.63;;
13849;SDS011;6995;52.618;13.488;2023-12-20T11:01:50;27.50;;;25.90;;
13849;SDS011;6995;52.618;13.488;2023-12-20T11:04:20;28.63;;;26.63;;
13849;SDS011;6995;52.618;13.488;2023-12-20T11:06:54;25.77;;;23.53;;
13849;SDS011;6995;52.618;13.488;2023-12-20T11:14:40;27.77;;;25.50;;
13849;SDS011;6995;52.618;13.488;2023-12-20T11:17:11;22.73;;;21.10;;
13849;SDS011;6995;52.618;13.488;2023-12-20T11:22:26;25.47;;;24.17;;
13849;SDS011;6995;52.618;13.488;2023-12-20T11:24:53;38.83;;;36.43;;
13849;SDS011;6995;52.618;13.488;2023-12-20T11:27:20;25.50;;;23.90;;
13849;SDS011;6995;52.618;13.488;2023-12-20T11:29:53;28.37;;;26.70;;
13849;SDS011;6995;52.618;13.488;2023-12-20T11:35:35;23.40;;;21.97;;
13849;SDS011;6995;52.618;13.488;2023-12-20T11:37:46;41.70;;;39.20;;
13849;SDS011;6995;52.618;13.488;2023-12-20T11:40:15;28.43;;;25.80;;
13849;SDS011;6995;52.618;13.488;2023-12-20T11:42:42;28.50;;;26.47;;
13849;SDS011;6995;52.618;13.488;2023-12-20T11:45:16;32.30;;;30.00;;
13849;SDS011;6995;52.618;13.488;2023-12-20T11:47:47;29.97;;;28.27;;
13849;SDS011;6995;52.618;13.488;2023-12-20T11:50:19;27.53;;;25.30;;
13849;SDS011;6995;52.618;13.488;2023-12-20T11:52:45;27.87;;;26.17;;
13849;SDS011;6995;52.618;13.488;2023-12-20T11:55:11;27.90;;;26.03;;
13849;SDS011;6995;52.618;13.488;2023-12-20T11:57:37;30.77;;;28.43;;
13849;SDS011;6995;52.618;13.488;2023-12-20T12:00:03;28.00;;;26.33;;
13849;SDS011;6995;52.618;13.488;2023-12-20T12:02:31;27.23;;;25.07;;
13849;SDS011;6995;52.618;13.488;2023-12-20T12:04:57;25.23;;;23.80;;
13849;SDS011;6995;52.618;13.488;2023-12-20T12:07:24;31.70;;;30.10;;
13849;SDS011;6995;52.618;13.488;2023-12-20T12:09:50;24.63;;;23.07;;
13849;SDS011;6995;52.618;13.488;2023-12-20T12:12:17;24.00;;;22.40;;
13849;SDS011;6995;52.618;13.488;2023-12-20T12:14:44;26.93;;;25.13;;
13849;SDS011;6995;52.618;13.488;2023-12-20T12:17:10;28.60;;;26.90;;
13849;SDS011;6995;52.618;13.488;2023-12-20T12:19:37;23.47;;;21.97;;
13849;SDS011;6995;52.618;13.488;2023-12-20T12:22:07;22.27;;;20.70;;
13849;SDS011;6995;52.618;13.488;2023-12-20T12:24:41;29.50;;;27.17;;
13849;SDS011;6995;52.618;13.488;2023-12-20T12:27:09;28.93;;;26.90;;
13849;SDS011;6995;52.618;13.488;2023-12-20T12:29:35;29.60;;;27.63;;
13849;SDS011;6995;52.618;13.488;2023-12-20T12:34:51;28.00;;;26.30;;
13849;SDS011;6995;52.618;13.488;2023-12-20T12:37:16;41.73;;;39.30;;
13849;SDS011;6995;52.618;13.488;2023-12-20T12:39:42;32.13;;;30.40;;
13849;SDS011;6995;52.618;13.488;2023-12-20T12:42:08;33.13;;;31.60;;
13849;SDS011;6995;52.618;13.488;2023-12-20T12:44:34;40.30;;;37.90;;
13849;SDS011;6995;52.618;13.488;2023-12-20T12:46:59;36.47;;;34.40;;
13849;SDS011;6995;52.618;13.488;2023-12-20T12:49:25;24.37;;;23.23;;
13849;SDS011;6995;52.618;13.488;2023-12-20T12:51:53;32.07;;;30.33;;
13849;SDS011;6995;52.618;13.488;2023-12-20T12:54:21;30.20;;;27.97;;
13849;SDS011;6995;52.618;13.488;2023-12-20T12:56:46;32.30;;;30.60;;
13849;SDS011;6995;52.618;13.488;2023-12-20T12:59:12;30.50;;;28.77;;
13849;SDS011;6995;52.618;13.488;2023-12-20T13:01:38;29.93;;;28.20;;
13849;SDS011;6995;52.618;13.488;2023-12-20T13:04:04;27.83;;;26.13;;
13849;SDS011;6995;52.618;13.488;2023-12-20T13:06:35;33.57;;;31.57;;
13849;SDS011;6995;52.618;13.488;2023-12-20T13:09:01;36.07;;;34.07;;
13849;SDS011;6995;52.618;13.488;2023-12-20T13:11:27;27.10;;;25.27;;
13849;SDS011;6995;52.618;13.488;2023-12-20T13:13:52;24.07;;;22.77;;
13849;SDS011;6995;52.618;13.488;2023-12-20T13:16:18;32.80;;;30.80;;
13849;SDS011;6995;52.618;13.488;2023-12-20T13:18:44;38.73;;;36.90;;
13849;SDS011;6995;52.618;13.488;2023-12-20T13:21:09;31.92;;;30.25;;
13849;SDS011;6995;52.618;13.488;2023-12-20T13:23:35;84.10;;;78.97;;
13849;SDS011;6995;52.618;13.488;2023-12-20T13:26:01;33.27;;;31.67;;
13849;SDS011;6995;52.618;13.488;2023-12-20T13:28:27;29.93;;;28.53;;
13849;SDS011;6995;52.618;13.488;2023-12-20T13:30:53;34.77;;;33.27;;
13849;SDS011;6995;52.618;13.488;2023-12-20T13:33:18;40.07;;;38.07;;
13849;SDS011;6995;52.618;13.488;2023-12-20T13:35:44;29.77;;;28.43;;
13849;SDS011;6995;52.618;13.488;2023-12-20T13:38:10;32.33;;;30.87;;
13849;SDS011;6995;52.618;13.488;2023-12-20T13:40:38;34.90;;;33.43;;
13849;SDS011;6995;52.618;13.488;2023-12-20T13:43:03;33.77;;;32.07;;
13849;SDS011;6995;52.618;13.488;2023-12-20T13:45:29;30.43;;;29.03;;
13849;SDS011;6995;52.618;13.488;2023-12-20T13:47:54;31.03;;;29.60;;
13849;SDS011;6995;52.618;13.488;2023-12-20T13:50:20;30.67;;;29.13;;
13849;SDS011;6995;52.618;13.488;2023-12-20T13:52:46;35.17;;;33.37;;
13849;SDS011;6995;52.618;13.488;2023-12-20T13:55:12;29.87;;;28.27;;
13849;SDS011;6995;52.618;13.488;2023-12-20T13:57:38;47.40;;;45.43;;
13849;SDS011;6995;52.618;13.488;2023-12-20T14:00:05;41.67;;;39.67;;
13849;SDS011;6995;52.618;13.488;2023-12-20T14:02:31;64.50;;;61.70;;
13849;SDS011;6995;52.618;13.488;2023-12-20T14:04:56;31.83;;;30.43;;
13849;SDS011;6995;52.618;13.488;2023-12-20T14:07:22;34.70;;;33.13;;
13849;SDS011;6995;52.618;13.488;2023-12-20T14:09:47;47.37;;;45.37;;
13849;SDS011;6995;52.618;13.488;2023-12-20T14:12:13;28.87;;;27.40;;
13849;SDS011;6995;52.618;13.488;2023-12-20T14:14:39;41.33;;;39.43;;
13849;SDS011;6995;52.618;13.488;2023-12-20T14:17:05;39.03;;;37.37;;
13849;SDS011;6995;52.618;13.488;2023-12-20T14:19:34;32.40;;;30.73;;
13849;SDS011;6995;52.618;13.488;2023-12-20T14:22:02;41.50;;;39.70;;
13849;SDS011;6995;52.618;13.488;2023-12-20T14:24:29;26.80;;;25.60;;
13849;SDS011;6995;52.618;13.488;2023-12-20T14:26:55;30.37;;;28.77;;
13849;SDS011;6995;52.618;13.488;2023-12-20T14:29:20;31.33;;;30.00;;
13849;SDS011;6995;52.618;13.488;2023-12-20T14:31:46;29.07;;;27.57;;
13849;SDS011;6995;52.618;13.488;2023-12-20T14:34:12;28.47;;;27.07;;
13849;SDS011;6995;52.618;13.488;2023-12-20T14:36:37;30.03;;;28.47;;
13849;SDS011;6995;52.618;13.488;2023-12-20T14:39:03;29.67;;;28.27;;